sensor_id;sensor_type;location;lat;lon;timestamp;pressure;altitude;pressure_sealevel;temperature;humidity
6395;BME280;3230;42.588;23.358;2023-07-24T00:00:38;91419.38;;;19.14;51.03
6395;BME280;3230;42.588;23.358;2023-07-24T00:03:05;91413.72;;;19.25;52.65
6395;BME280;3230;42.588;23.358;2023-07-24T00:05:31;91412.50;;;19.22;52.70
6395;BME280;3230;42.588;23.358;2023-07-24T00:07:56;91409.03;;;19.22;51.81
6395;BME280;3230;42.588;23.358;2023-07-24T00:10:22;91407.78;;;19.28;50.51
6395;BME280;3230;42.588;23.358;2023-07-24T00:12:47;91404.84;;;19.21;49.41
6395;BME280;3230;42.588;23.358;2023-07-24T00:15:13;91411.06;;;19.25;47.33
6395;BME280;3230;42.588;23.358;2023-07-24T00:17:38;91403.72;;;19.30;47.34
6395;BME280;3230;42.588;23.358;2023-07-24T00:20:04;91406.81;;;19.32;48.01
6395;BME280;3230;42.588;23.358;2023-07-24T00:22:30;91401.53;;;19.24;50.08
6395;BME280;3230;42.588;23.358;2023-07-24T00:24:55;91398.25;;;19.18;53.22
6395;BME280;3230;42.588;23.358;2023-07-24T00:27:20;91393.59;;;19.15;51.77
6395;BME280;3230;42.588;23.358;2023-07-24T00:29:46;91392.69;;;19.02;49.70
6395;BME280;3230;42.588;23.358;2023-07-24T00:32:11;91402.38;;;19.07;50.13
6395;BME280;3230;42.588;23.358;2023-07-24T00:34:37;91399.38;;;19.08;50.99
6395;BME280;3230;42.588;23.358;2023-07-24T00:37:03;91398.13;;;19.14;54.12
6395;BME280;3230;42.588;23.358;2023-07-24T00:39:28;91389.72;;;19.12;54.95
6395;BME280;3230;42.588;23.358;2023-07-24T00:41:55;91388.91;;;19.12;53.50
6395;BME280;3230;42.588;23.358;2023-07-24T00:44:20;91395.03;;;19.12;52.07
6395;BME280;3230;42.588;23.358;2023-07-24T00:46:46;91393.47;;;19.11;52.00
6395;BME280;3230;42.588;23.358;2023-07-24T00:49:11;91392.97;;;19.09;52.43
6395;BME280;3230;42.588;23.358;2023-07-24T00:51:37;91391.88;;;19.10;53.24
6395;BME280;3230;42.588;23.358;2023-07-24T00:54:05;91387.38;;;19.11;54.58
6395;BME280;3230;42.588;23.358;2023-07-24T00:56:32;91386.72;;;19.14;53.55
6395;BME280;3230;42.588;23.358;2023-07-24T00:58:57;91397.84;;;19.07;55.94
6395;BME280;3230;42.588;23.358;2023-07-24T01:01:25;91384.09;;;19.05;56.44
6395;BME280;3230;42.588;23.358;2023-07-24T01:03:51;91388.19;;;18.94;58.14
6395;BME280;3230;42.588;23.358;2023-07-24T01:06:17;91383.00;;;18.97;57.50
6395;BME280;3230;42.588;23.358;2023-07-24T01:08:43;91381.75;;;18.86;58.82
6395;BME280;3230;42.588;23.358;2023-07-24T01:11:18;91387.53;;;18.88;56.79
6395;BME280;3230;42.588;23.358;2023-07-24T01:13:56;91374.28;;;18.70;59.29
6395;BME280;3230;42.588;23.358;2023-07-24T01:16:26;91376.66;;;18.72;59.69
6395;BME280;3230;42.588;23.358;2023-07-24T01:18:57;91377.91;;;18.66;61.27
6395;BME280;3230;42.588;23.358;2023-07-24T01:21:32;91370.38;;;18.68;61.42
6395;BME280;3230;42.588;23.358;2023-07-24T01:24:24;91376.03;;;18.58;64.10
6395;BME280;3230;42.588;23.358;2023-07-24T01:26:54;91374.63;;;18.60;63.82
6395;BME280;3230;42.588;23.358;2023-07-24T01:29:19;91381.94;;;18.54;59.77
6395;BME280;3230;42.588;23.358;2023-07-24T01:31:45;91375.25;;;18.57;55.56
6395;BME280;3230;42.588;23.358;2023-07-24T01:34:10;91370.91;;;18.52;61.35
6395;BME280;3230;42.588;23.358;2023-07-24T01:36:36;91372.91;;;18.56;57.47
6395;BME280;3230;42.588;23.358;2023-07-24T01:39:02;91374.81;;;18.46;57.50
6395;BME280;3230;42.588;23.358;2023-07-24T01:41:28;91368.72;;;18.37;59.59
6395;BME280;3230;42.588;23.358;2023-07-24T01:43:53;91366.22;;;18.41;65.27
6395;BME280;3230;42.588;23.358;2023-07-24T01:46:19;91370.28;;;18.29;62.35
6395;BME280;3230;42.588;23.358;2023-07-24T01:48:44;91372.28;;;18.24;65.02
6395;BME280;3230;42.588;23.358;2023-07-24T01:51:11;91368.88;;;18.32;65.44
6395;BME280;3230;42.588;23.358;2023-07-24T01:53:37;91368.22;;;18.35;65.63
6395;BME280;3230;42.588;23.358;2023-07-24T01:56:02;91378.53;;;18.10;59.23
6395;BME280;3230;42.588;23.358;2023-07-24T01:58:28;91373.69;;;18.03;55.28
6395;BME280;3230;42.588;23.358;2023-07-24T02:00:55;91379.94;;;18.08;55.50
6395;BME280;3230;42.588;23.358;2023-07-24T02:03:21;91381.94;;;18.02;57.21
6395;BME280;3230;42.588;23.358;2023-07-24T02:05:50;91386.00;;;18.08;60.13
6395;BME280;3230;42.588;23.358;2023-07-24T02:08:16;91380.53;;;18.13;59.15
6395;BME280;3230;42.588;23.358;2023-07-24T02:10:41;91380.88;;;18.03;58.77
6395;BME280;3230;42.588;23.358;2023-07-24T02:13:07;91377.91;;;18.04;60.29
6395;BME280;3230;42.588;23.358;2023-07-24T02:15:32;91375.41;;;17.99;60.77
6395;BME280;3230;42.588;23.358;2023-07-24T02:17:58;91375.25;;;17.96;58.29
6395;BME280;3230;42.588;23.358;2023-07-24T02:20:23;91371.31;;;17.93;55.33
6395;BME280;3230;42.588;23.358;2023-07-24T02:22:49;91376.03;;;18.05;62.45
6395;BME280;3230;42.588;23.358;2023-07-24T02:25:14;91374.00;;;18.02;65.12
6395;BME280;3230;42.588;23.358;2023-07-24T02:27:40;91371.50;;;17.97;65.30
6395;BME280;3230;42.588;23.358;2023-07-24T02:30:05;91366.97;;;18.06;59.74
6395;BME280;3230;42.588;23.358;2023-07-24T02:32:31;91369.16;;;18.13;53.78
6395;BME280;3230;42.588;23.358;2023-07-24T02:34:57;91365.13;;;18.15;55.25
6395;BME280;3230;42.588;23.358;2023-07-24T02:37:23;91365.44;;;18.22;56.50
6395;BME280;3230;42.588;23.358;2023-07-24T02:39:48;91358.09;;;18.28;55.46
6395;BME280;3230;42.588;23.358;2023-07-24T02:42:13;91367.91;;;18.28;54.14
6395;BME280;3230;42.588;23.358;2023-07-24T02:44:39;91366.34;;;18.27;54.83
6395;BME280;3230;42.588;23.358;2023-07-24T02:47:04;91363.56;;;18.32;52.77
6395;BME280;3230;42.588;23.358;2023-07-24T02:49:30;91361.38;;;18.16;51.80
6395;BME280;3230;42.588;23.358;2023-07-24T02:51:55;91368.25;;;18.17;50.01
6395;BME280;3230;42.588;23.358;2023-07-24T02:54:21;91368.84;;;18.14;50.34
6395;BME280;3230;42.588;23.358;2023-07-24T02:56:46;91370.09;;;18.08;51.16
6395;BME280;3230;42.588;23.358;2023-07-24T02:59:12;91374.63;;;18.08;54.28
6395;BME280;3230;42.588;23.358;2023-07-24T03:01:37;91366.53;;;18.04;56.02
6395;BME280;3230;42.588;23.358;2023-07-24T03:04:03;91367.44;;;17.99;58.83
6395;BME280;3230;42.588;23.358;2023-07-24T03:06:30;91362.75;;;17.96;63.33
6395;BME280;3230;42.588;23.358;2023-07-24T03:08:56;91359.47;;;17.90;64.47
6395;BME280;3230;42.588;23.358;2023-07-24T03:11:21;91360.09;;;17.96;66.86
6395;BME280;3230;42.588;23.358;2023-07-24T03:13:47;91357.16;;;17.98;68.34
6395;BME280;3230;42.588;23.358;2023-07-24T03:16:12;91363.06;;;17.95;73.07
6395;BME280;3230;42.588;23.358;2023-07-24T03:18:38;91356.81;;;17.90;74.14
6395;BME280;3230;42.588;23.358;2023-07-24T03:21:03;91356.00;;;17.90;75.03
6395;BME280;3230;42.588;23.358;2023-07-24T03:23:29;91349.28;;;17.84;76.05
6395;BME280;3230;42.588;23.358;2023-07-24T03:25:54;91344.78;;;17.84;76.63
6395;BME280;3230;42.588;23.358;2023-07-24T03:28:20;91349.28;;;17.84;77.56
6395;BME280;3230;42.588;23.358;2023-07-24T03:30:45;91345.88;;;17.83;76.39
6395;BME280;3230;42.588;23.358;2023-07-24T03:33:11;91348.53;;;17.83;77.98
6395;BME280;3230;42.588;23.358;2023-07-24T03:35:38;91346.81;;;17.87;77.51
6395;BME280;3230;42.588;23.358;2023-07-24T03:38:04;91344.16;;;17.87;75.02
6395;BME280;3230;42.588;23.358;2023-07-24T03:40:30;91353.69;;;17.88;69.35
6395;BME280;3230;42.588;23.358;2023-07-24T03:42:55;91353.72;;;17.97;69.95
6395;BME280;3230;42.588;23.358;2023-07-24T03:45:21;91356.22;;;18.02;72.14
6395;BME280;3230;42.588;23.358;2023-07-24T03:47:49;91357.31;;;18.10;72.93
6395;BME280;3230;42.588;23.358;2023-07-24T03:50:15;91362.31;;;18.20;69.63
6395;BME280;3230;42.588;23.358;2023-07-24T03:52:41;91366.19;;;18.23;67.19
6395;BME280;3230;42.588;23.358;2023-07-24T03:55:07;91364.19;;;18.29;66.28
6395;BME280;3230;42.588;23.358;2023-07-24T03:57:33;91359.19;;;18.36;66.80
6395;BME280;3230;42.588;23.358;2023-07-24T03:59:58;91362.63;;;18.45;68.13
6395;BME280;3230;42.588;23.358;2023-07-24T04:02:24;91361.38;;;18.51;72.64
6395;BME280;3230;42.588;23.358;2023-07-24T04:04:49;91364.97;;;18.47;73.63
6395;BME280;3230;42.588;23.358;2023-07-24T04:07:15;91361.53;;;18.37;71.68
6395;BME280;3230;42.588;23.358;2023-07-24T04:09:40;91364.03;;;18.51;74.72
6395;BME280;3230;42.588;23.358;2023-07-24T04:12:06;91358.22;;;18.58;72.80
6395;BME280;3230;42.588;23.358;2023-07-24T04:14:31;91367.91;;;18.63;72.49
6395;BME280;3230;42.588;23.358;2023-07-24T04:16:57;91373.66;;;18.82;70.80
6395;BME280;3230;42.588;23.358;2023-07-24T04:19:22;91370.19;;;18.99;70.18
6395;BME280;3230;42.588;23.358;2023-07-24T04:21:47;91375.16;;;19.18;68.34
6395;BME280;3230;42.588;23.358;2023-07-24T04:24:13;91372.00;;;19.34;68.53
6395;BME280;3230;42.588;23.358;2023-07-24T04:26:38;91368.06;;;19.70;72.24
6395;BME280;3230;42.588;23.358;2023-07-24T04:29:05;91378.84;;;20.04;72.73
6395;BME280;3230;42.588;23.358;2023-07-24T04:31:31;91373.00;;;20.10;74.02
6395;BME280;3230;42.588;23.358;2023-07-24T04:33:56;91377.63;;;20.43;73.15
6395;BME280;3230;42.588;23.358;2023-07-24T04:36:22;91381.31;;;20.72;71.92
6395;BME280;3230;42.588;23.358;2023-07-24T04:38:47;91376.41;;;20.96;69.57
6395;BME280;3230;42.588;23.358;2023-07-24T04:41:12;91379.47;;;21.31;65.47
6395;BME280;3230;42.588;23.358;2023-07-24T04:43:38;91380.13;;;21.74;61.27
6395;BME280;3230;42.588;23.358;2023-07-24T04:46:03;91375.94;;;22.39;62.10
6395;BME280;3230;42.588;23.358;2023-07-24T04:48:29;91381.69;;;22.53;60.62
6395;BME280;3230;42.588;23.358;2023-07-24T04:50:55;91390.22;;;24.43;53.56
6395;BME280;3230;42.588;23.358;2023-07-24T04:53:21;91395.81;;;27.96;43.32
6395;BME280;3230;42.588;23.358;2023-07-24T04:55:47;91391.69;;;30.66;37.47
6395;BME280;3230;42.588;23.358;2023-07-24T04:58:13;91398.66;;;31.63;35.69
6395;BME280;3230;42.588;23.358;2023-07-24T05:00:38;91406.47;;;33.66;32.17
6395;BME280;3230;42.588;23.358;2023-07-24T05:03:04;91402.53;;;34.73;30.43
6395;BME280;3230;42.588;23.358;2023-07-24T05:05:31;91406.78;;;34.26;30.72
6395;BME280;3230;42.588;23.358;2023-07-24T05:07:57;91413.34;;;35.20;28.55
6395;BME280;3230;42.588;23.358;2023-07-24T05:10:22;91408.88;;;35.10;28.08
6395;BME280;3230;42.588;23.358;2023-07-24T05:12:47;91409.50;;;35.58;29.02
6395;BME280;3230;42.588;23.358;2023-07-24T05:15:13;91400.38;;;33.58;31.82
6395;BME280;3230;42.588;23.358;2023-07-24T05:17:42;91399.19;;;33.25;31.15
6395;BME280;3230;42.588;23.358;2023-07-24T05:20:08;91403.41;;;34.19;29.54
6395;BME280;3230;42.588;23.358;2023-07-24T05:22:33;91403.53;;;34.11;29.50
6395;BME280;3230;42.588;23.358;2023-07-24T05:24:59;91411.53;;;34.46;28.72
6395;BME280;3230;42.588;23.358;2023-07-24T05:27:24;91411.56;;;33.91;28.82
6395;BME280;3230;42.588;23.358;2023-07-24T05:29:49;91409.81;;;33.15;30.40
6395;BME280;3230;42.588;23.358;2023-07-24T05:32:15;91412.38;;;34.16;29.19
6395;BME280;3230;42.588;23.358;2023-07-24T05:34:40;91410.47;;;34.40;29.30
6395;BME280;3230;42.588;23.358;2023-07-24T05:37:05;91410.13;;;34.82;28.79
6395;BME280;3230;42.588;23.358;2023-07-24T05:39:31;91410.25;;;35.95;27.42
6395;BME280;3230;42.588;23.358;2023-07-24T05:41:56;91409.94;;;35.93;27.80
6395;BME280;3230;42.588;23.358;2023-07-24T05:44:22;91410.97;;;36.16;27.54
6395;BME280;3230;42.588;23.358;2023-07-24T05:46:47;91402.88;;;36.29;27.20
6395;BME280;3230;42.588;23.358;2023-07-24T05:49:12;91406.38;;;36.62;25.56
6395;BME280;3230;42.588;23.358;2023-07-24T05:51:38;91397.44;;;35.39;28.82
6395;BME280;3230;42.588;23.358;2023-07-24T05:54:03;91387.31;;;34.99;28.71
6395;BME280;3230;42.588;23.358;2023-07-24T05:56:29;91394.06;;;35.31;28.33
6395;BME280;3230;42.588;23.358;2023-07-24T05:58:54;91390.69;;;36.67;26.11
6395;BME280;3230;42.588;23.358;2023-07-24T06:01:19;91384.69;;;35.12;28.27
6395;BME280;3230;42.588;23.358;2023-07-24T06:03:45;91382.84;;;36.52;26.98
6395;BME280;3230;42.588;23.358;2023-07-24T06:06:10;91382.19;;;35.21;28.27
6395;BME280;3230;42.588;23.358;2023-07-24T06:08:35;91371.94;;;35.66;28.24
6395;BME280;3230;42.588;23.358;2023-07-24T06:11:01;91372.72;;;35.66;27.84
6395;BME280;3230;42.588;23.358;2023-07-24T06:13:26;91370.84;;;36.49;26.86
6395;BME280;3230;42.588;23.358;2023-07-24T06:15:52;91381.00;;;38.05;25.64
6395;BME280;3230;42.588;23.358;2023-07-24T06:18:18;91382.38;;;37.16;25.62
6395;BME280;3230;42.588;23.358;2023-07-24T06:20:43;91379.03;;;38.32;24.36
6395;BME280;3230;42.588;23.358;2023-07-24T06:23:08;91376.72;;;38.17;24.81
6395;BME280;3230;42.588;23.358;2023-07-24T06:25:34;91383.13;;;37.46;26.15
6395;BME280;3230;42.588;23.358;2023-07-24T06:27:59;91379.13;;;38.15;26.16
6395;BME280;3230;42.588;23.358;2023-07-24T06:30:25;91383.34;;;39.47;25.48
6395;BME280;3230;42.588;23.358;2023-07-24T06:32:50;91385.81;;;39.55;25.07
6395;BME280;3230;42.588;23.358;2023-07-24T06:35:16;91384.03;;;39.83;25.43
6395;BME280;3230;42.588;23.358;2023-07-24T06:37:41;91380.41;;;39.19;25.53
6395;BME280;3230;42.588;23.358;2023-07-24T06:40:07;91383.13;;;38.97;26.33
6395;BME280;3230;42.588;23.358;2023-07-24T06:42:33;91382.41;;;39.95;24.70
6395;BME280;3230;42.588;23.358;2023-07-24T06:44:58;91383.25;;;39.60;26.04
6395;BME280;3230;42.588;23.358;2023-07-24T06:47:24;91384.66;;;39.21;25.81
6395;BME280;3230;42.588;23.358;2023-07-24T06:49:50;91374.19;;;38.84;26.21
6395;BME280;3230;42.588;23.358;2023-07-24T06:52:15;91380.53;;;38.33;27.03
6395;BME280;3230;42.588;23.358;2023-07-24T06:54:40;91385.44;;;38.99;25.73
6395;BME280;3230;42.588;23.358;2023-07-24T06:57:06;91385.56;;;38.47;26.49
6395;BME280;3230;42.588;23.358;2023-07-24T06:59:32;91379.09;;;38.41;26.70
6395;BME280;3230;42.588;23.358;2023-07-24T07:02:00;91383.78;;;38.53;26.08
6395;BME280;3230;42.588;23.358;2023-07-24T07:04:26;91389.41;;;37.85;28.15
6395;BME280;3230;42.588;23.358;2023-07-24T07:06:51;91401.75;;;39.02;26.53
6395;BME280;3230;42.588;23.358;2023-07-24T07:09:17;91394.25;;;39.16;25.59
6395;BME280;3230;42.588;23.358;2023-07-24T07:11:42;91392.59;;;39.41;24.77
6395;BME280;3230;42.588;23.358;2023-07-24T07:14:10;91401.59;;;41.51;22.90
6395;BME280;3230;42.588;23.358;2023-07-24T07:16:36;91401.72;;;40.91;22.99
6395;BME280;3230;42.588;23.358;2023-07-24T07:19:02;91405.22;;;41.38;23.41
6395;BME280;3230;42.588;23.358;2023-07-24T07:21:27;91398.50;;;41.58;22.62
6395;BME280;3230;42.588;23.358;2023-07-24T07:23:52;91394.41;;;41.53;23.40
6395;BME280;3230;42.588;23.358;2023-07-24T07:26:18;91389.88;;;40.44;24.73
6395;BME280;3230;42.588;23.358;2023-07-24T07:28:44;91393.81;;;41.12;23.35
6395;BME280;3230;42.588;23.358;2023-07-24T07:31:12;91393.13;;;40.11;24.79
6395;BME280;3230;42.588;23.358;2023-07-24T07:33:38;91398.34;;;40.19;24.17
6395;BME280;3230;42.588;23.358;2023-07-24T07:36:04;91389.75;;;38.74;26.28
6395;BME280;3230;42.588;23.358;2023-07-24T07:38:31;91386.88;;;40.70;23.27
6395;BME280;3230;42.588;23.358;2023-07-24T07:40:56;91400.44;;;42.28;22.09
6395;BME280;3230;42.588;23.358;2023-07-24T07:43:21;91389.34;;;40.87;23.88
6395;BME280;3230;42.588;23.358;2023-07-24T07:45:47;91392.81;;;42.57;22.04
6395;BME280;3230;42.588;23.358;2023-07-24T07:48:13;91393.78;;;43.02;22.16
6395;BME280;3230;42.588;23.358;2023-07-24T07:50:39;91396.81;;;41.42;23.88
6395;BME280;3230;42.588;23.358;2023-07-24T07:53:04;91397.78;;;42.10;22.45
6395;BME280;3230;42.588;23.358;2023-07-24T07:55:29;91395.78;;;41.21;24.03
6395;BME280;3230;42.588;23.358;2023-07-24T07:57:55;91401.41;;;42.16;23.35
6395;BME280;3230;42.588;23.358;2023-07-24T08:00:20;91416.00;;;44.07;20.31
6395;BME280;3230;42.588;23.358;2023-07-24T08:02:46;91404.13;;;41.73;23.03
6395;BME280;3230;42.588;23.358;2023-07-24T08:05:11;91405.75;;;43.53;21.63
6395;BME280;3230;42.588;23.358;2023-07-24T08:07:37;91413.56;;;44.45;20.69
6395;BME280;3230;42.588;23.358;2023-07-24T08:10:03;91403.47;;;43.12;22.20
6395;BME280;3230;42.588;23.358;2023-07-24T08:12:28;91413.13;;;43.86;21.08
6395;BME280;3230;42.588;23.358;2023-07-24T08:14:55;91396.81;;;42.80;21.65
6395;BME280;3230;42.588;23.358;2023-07-24T08:17:21;91399.59;;;42.13;23.26
6395;BME280;3230;42.588;23.358;2023-07-24T08:19:46;91390.28;;;41.21;23.43
6395;BME280;3230;42.588;23.358;2023-07-24T08:22:12;91390.50;;;42.31;22.54
6395;BME280;3230;42.588;23.358;2023-07-24T08:24:37;91391.34;;;41.14;23.37
6395;BME280;3230;42.588;23.358;2023-07-24T08:27:03;91398.91;;;42.37;21.75
6395;BME280;3230;42.588;23.358;2023-07-24T08:39:10;91422.88;;;42.02;nan
6395;BME280;3230;42.588;23.358;2023-07-24T08:41:36;91381.91;;;41.34;nan
6395;BME280;3230;42.588;23.358;2023-07-24T08:44:05;91374.41;;;41.06;nan
6395;BME280;3230;42.588;23.358;2023-07-24T08:46:31;91374.69;;;39.49;nan
6395;BME280;3230;42.588;23.358;2023-07-24T08:49:00;91377.44;;;40.71;nan
6395;BME280;3230;42.588;23.358;2023-07-24T08:51:26;91368.28;;;41.39;nan
6395;BME280;3230;42.588;23.358;2023-07-24T08:53:53;91367.34;;;41.61;nan
6395;BME280;3230;42.588;23.358;2023-07-24T08:56:19;91380.72;;;43.27;nan
6395;BME280;3230;42.588;23.358;2023-07-24T08:58:45;91388.28;;;42.11;nan
6395;BME280;3230;42.588;23.358;2023-07-24T09:01:10;91372.25;;;40.92;nan
6395;BME280;3230;42.588;23.358;2023-07-24T09:03:36;91379.56;;;41.60;nan
6395;BME280;3230;42.588;23.358;2023-07-24T09:06:02;91368.50;;;42.55;nan
6395;BME280;3230;42.588;23.358;2023-07-24T09:08:42;91373.81;;;41.21;nan
6395;BME280;3230;42.588;23.358;2023-07-24T09:11:08;91376.31;;;40.00;nan
6395;BME280;3230;42.588;23.358;2023-07-24T09:13:41;91370.03;;;39.37;nan
6395;BME280;3230;42.588;23.358;2023-07-24T09:16:07;91358.00;;;37.64;nan
6395;BME280;3230;42.588;23.358;2023-07-24T09:18:42;91356.53;;;36.45;nan
6395;BME280;3230;42.588;23.358;2023-07-24T09:21:08;91354.50;;;35.80;nan
6395;BME280;3230;42.588;23.358;2023-07-24T09:23:34;91361.25;;;34.31;nan
6395;BME280;3230;42.588;23.358;2023-07-24T09:26:05;91355.47;;;33.50;nan
6395;BME280;3230;42.588;23.358;2023-07-24T09:28:30;91351.00;;;33.36;nan
6395;BME280;3230;42.588;23.358;2023-07-24T09:30:58;91345.25;;;33.30;nan
6395;BME280;3230;42.588;23.358;2023-07-24T09:33:35;91344.72;;;32.74;nan
6395;BME280;3230;42.588;23.358;2023-07-24T09:36:02;91340.22;;;32.60;nan
6395;BME280;3230;42.588;23.358;2023-07-24T09:38:28;91335.19;;;32.16;nan
6395;BME280;3230;42.588;23.358;2023-07-24T09:40:55;91330.53;;;31.71;nan
6395;BME280;3230;42.588;23.358;2023-07-24T09:43:23;91327.28;;;31.27;nan
6395;BME280;3230;42.588;23.358;2023-07-24T09:45:50;91326.63;;;31.09;nan
6395;BME280;3230;42.588;23.358;2023-07-24T09:48:16;91326.63;;;31.09;nan
6395;BME280;3230;42.588;23.358;2023-07-24T09:50:45;91308.81;;;31.12;nan
6395;BME280;3230;42.588;23.358;2023-07-24T09:56:04;91308.78;;;31.22;nan
6395;BME280;3230;42.588;23.358;2023-07-24T09:58:33;91314.88;;;31.37;nan
6395;BME280;3230;42.588;23.358;2023-07-24T10:01:05;91308.81;;;31.15;nan
6395;BME280;3230;42.588;23.358;2023-07-24T10:03:34;91315.63;;;31.38;nan
6395;BME280;3230;42.588;23.358;2023-07-24T10:06:00;91311.69;;;31.50;nan
6395;BME280;3230;42.588;23.358;2023-07-24T10:08:26;91303.06;;;31.73;nan
6395;BME280;3230;42.588;23.358;2023-07-24T10:10:52;91301.13;;;31.70;nan
6395;BME280;3230;42.588;23.358;2023-07-24T10:13:19;91306.97;;;31.65;nan
6395;BME280;3230;42.588;23.358;2023-07-24T10:15:47;91307.81;;;31.54;nan
6395;BME280;3230;42.588;23.358;2023-07-24T10:18:15;91293.81;;;31.67;nan
6395;BME280;3230;42.588;23.358;2023-07-24T10:20:42;91292.09;;;31.31;nan
6395;BME280;3230;42.588;23.358;2023-07-24T10:23:09;91296.41;;;31.18;nan
6395;BME280;3230;42.588;23.358;2023-07-24T10:25:37;91301.91;;;31.00;nan
6395;BME280;3230;42.588;23.358;2023-07-24T10:28:07;91300.44;;;30.88;nan
6395;BME280;3230;42.588;23.358;2023-07-24T10:30:35;91291.91;;;30.93;nan
6395;BME280;3230;42.588;23.358;2023-07-24T10:33:11;91283.69;;;31.18;nan
6395;BME280;3230;42.588;23.358;2023-07-24T10:35:38;91285.25;;;31.12;nan
6395;BME280;3230;42.588;23.358;2023-07-24T10:38:04;91282.16;;;31.14;nan
6395;BME280;3230;42.588;23.358;2023-07-24T10:40:29;91279.19;;;30.86;nan
6395;BME280;3230;42.588;23.358;2023-07-24T10:43:09;91280.03;;;30.69;nan
6395;BME280;3230;42.588;23.358;2023-07-24T10:45:49;91278.88;;;30.66;nan
6395;BME280;3230;42.588;23.358;2023-07-24T10:48:16;91278.03;;;30.80;nan
6395;BME280;3230;42.588;23.358;2023-07-24T10:50:44;91280.31;;;30.92;nan
6395;BME280;3230;42.588;23.358;2023-07-24T10:53:12;91278.34;;;30.97;nan
6395;BME280;3230;42.588;23.358;2023-07-24T10:55:38;91269.41;;;31.10;nan
6395;BME280;3230;42.588;23.358;2023-07-24T10:58:04;91271.72;;;31.72;nan
6395;BME280;3230;42.588;23.358;2023-07-24T11:00:29;91270.97;;;31.68;nan
6395;BME280;3230;42.588;23.358;2023-07-24T11:02:55;91268.88;;;32.28;nan
6395;BME280;3230;42.588;23.358;2023-07-24T11:05:22;91268.41;;;32.37;nan
6395;BME280;3230;42.588;23.358;2023-07-24T11:07:48;91264.19;;;32.67;nan
6395;BME280;3230;42.588;23.358;2023-07-24T11:10:18;91264.19;;;32.98;nan
6395;BME280;3230;42.588;23.358;2023-07-24T11:12:44;91265.84;;;32.92;nan
6395;BME280;3230;42.588;23.358;2023-07-24T11:15:11;91252.25;;;32.61;nan
6395;BME280;3230;42.588;23.358;2023-07-24T11:17:37;91250.34;;;32.58;nan
6395;BME280;3230;42.588;23.358;2023-07-24T11:20:10;91260.75;;;32.63;nan
6395;BME280;3230;42.588;23.358;2023-07-24T11:22:38;91251.09;;;32.62;nan
6395;BME280;3230;42.588;23.358;2023-07-24T11:25:04;91248.03;;;32.56;nan
6395;BME280;3230;42.588;23.358;2023-07-24T11:27:31;91232.44;;;32.64;nan
6395;BME280;3230;42.588;23.358;2023-07-24T11:29:57;91244.00;;;33.03;nan
6395;BME280;3230;42.588;23.358;2023-07-24T11:32:22;91241.78;;;33.21;nan
6395;BME280;3230;42.588;23.358;2023-07-24T11:34:49;91248.19;;;33.62;nan
6395;BME280;3230;42.588;23.358;2023-07-24T11:37:15;91241.75;;;33.76;nan
6395;BME280;3230;42.588;23.358;2023-07-24T11:39:41;91239.78;;;33.53;nan
6395;BME280;3230;42.588;23.358;2023-07-24T11:42:07;91234.59;;;33.62;nan
6395;BME280;3230;42.588;23.358;2023-07-24T11:44:33;91230.34;;;33.61;nan
6395;BME280;3230;42.588;23.358;2023-07-24T11:47:05;91228.03;;;33.08;nan
6395;BME280;3230;42.588;23.358;2023-07-24T11:49:31;91216.97;;;33.23;nan
6395;BME280;3230;42.588;23.358;2023-07-24T11:52:05;91220.91;;;33.18;nan
6395;BME280;3230;42.588;23.358;2023-07-24T11:54:33;91220.84;;;32.63;nan
6395;BME280;3230;42.588;23.358;2023-07-24T11:56:59;91218.00;;;32.40;nan
6395;BME280;3230;42.588;23.358;2023-07-24T11:59:24;91224.25;;;32.36;nan
6395;BME280;3230;42.588;23.358;2023-07-24T12:01:51;91210.03;;;32.60;nan
6395;BME280;3230;42.588;23.358;2023-07-24T12:04:17;91212.16;;;32.76;nan
6395;BME280;3230;42.588;23.358;2023-07-24T12:06:42;91212.13;;;32.79;nan
6395;BME280;3230;42.588;23.358;2023-07-24T12:09:08;91218.16;;;32.91;nan
6395;BME280;3230;42.588;23.358;2023-07-24T12:11:44;91221.66;;;33.19;nan
6395;BME280;3230;42.588;23.358;2023-07-24T12:14:11;91218.34;;;33.35;nan
6395;BME280;3230;42.588;23.358;2023-07-24T12:16:36;91217.03;;;33.43;nan
6395;BME280;3230;42.588;23.358;2023-07-24T12:19:03;91222.72;;;33.52;nan
6395;BME280;3230;42.588;23.358;2023-07-24T12:21:29;91231.47;;;33.63;nan
6395;BME280;3230;42.588;23.358;2023-07-24T12:23:54;91227.63;;;33.61;nan
6395;BME280;3230;42.588;23.358;2023-07-24T12:26:20;91218.59;;;33.68;nan
6395;BME280;3230;42.588;23.358;2023-07-24T12:28:45;91209.38;;;33.61;nan
6395;BME280;3230;42.588;23.358;2023-07-24T12:31:11;91215.31;;;33.29;nan
6395;BME280;3230;42.588;23.358;2023-07-24T12:33:36;91207.75;;;33.16;nan
6395;BME280;3230;42.588;23.358;2023-07-24T12:36:02;91209.63;;;33.20;nan
6395;BME280;3230;42.588;23.358;2023-07-24T12:38:27;91205.63;;;33.28;nan
6395;BME280;3230;42.588;23.358;2023-07-24T12:40:53;91200.09;;;33.08;nan
6395;BME280;3230;42.588;23.358;2023-07-24T12:43:18;91202.59;;;33.22;nan
6395;BME280;3230;42.588;23.358;2023-07-24T12:45:44;91201.00;;;33.25;nan
6395;BME280;3230;42.588;23.358;2023-07-24T12:48:09;91205.91;;;33.37;nan
6395;BME280;3230;42.588;23.358;2023-07-24T12:50:35;91199.22;;;33.14;nan
6395;BME280;3230;42.588;23.358;2023-07-24T12:53:00;91190.69;;;32.89;nan
6395;BME280;3230;42.588;23.358;2023-07-24T12:55:26;91194.06;;;32.96;nan
6395;BME280;3230;42.588;23.358;2023-07-24T12:57:52;91190.53;;;32.99;nan
6395;BME280;3230;42.588;23.358;2023-07-24T13:00:18;91199.81;;;33.02;nan
6395;BME280;3230;42.588;23.358;2023-07-24T13:02:43;91193.19;;;32.76;nan
6395;BME280;3230;42.588;23.358;2023-07-24T13:05:09;91188.88;;;32.78;nan
6395;BME280;3230;42.588;23.358;2023-07-24T13:07:34;91185.97;;;32.93;nan
6395;BME280;3230;42.588;23.358;2023-07-24T13:09:59;91184.38;;;32.95;nan
6395;BME280;3230;42.588;23.358;2023-07-24T13:12:25;91184.13;;;32.86;nan
6395;BME280;3230;42.588;23.358;2023-07-24T13:14:50;91185.75;;;32.49;nan
6395;BME280;3230;42.588;23.358;2023-07-24T13:17:16;91173.59;;;32.61;nan
6395;BME280;3230;42.588;23.358;2023-07-24T13:19:41;91185.72;;;32.52;nan
6395;BME280;3230;42.588;23.358;2023-07-24T13:22:07;91177.38;;;32.67;nan
6395;BME280;3230;42.588;23.358;2023-07-24T13:24:32;91181.00;;;32.88;nan
6395;BME280;3230;42.588;23.358;2023-07-24T13:26:58;91168.16;;;32.92;nan